sensor_id;sensor_type;location;lat;lon;timestamp;pressure;altitude;pressure_sealevel;temperature;humidity
18790;BME280;9523;42.650;23.386;2023-04-07T00:00:23;94351.13;;;2.14;54.66
18790;BME280;9523;42.650;23.386;2023-04-07T00:02:50;94336.06;;;2.16;54.12
18790;BME280;9523;42.650;23.386;2023-04-07T00:05:17;94342.66;;;2.24;53.94
18790;BME280;9523;42.650;23.386;2023-04-07T00:07:45;94346.94;;;2.13;53.83
18790;BME280;9523;42.650;23.386;2023-04-07T00:10:12;94353.78;;;2.19;53.96
18790;BME280;9523;42.650;23.386;2023-04-07T00:12:39;94363.59;;;2.12;53.97
18790;BME280;9523;42.650;23.386;2023-04-07T00:15:06;94350.75;;;2.06;54.12
18790;BME280;9523;42.650;23.386;2023-04-07T00:17:33;94323.47;;;1.86;54.07
18790;BME280;9523;42.650;23.386;2023-04-07T00:20:00;94353.75;;;2.14;53.61
18790;BME280;9523;42.650;23.386;2023-04-07T00:22:27;94345.63;;;2.11;54.05
18790;BME280;9523;42.650;23.386;2023-04-07T00:24:55;94347.38;;;2.05;53.83
18790;BME280;9523;42.650;23.386;2023-04-07T00:27:22;94344.69;;;2.00;53.81
18790;BME280;9523;42.650;23.386;2023-04-07T00:29:49;94356.34;;;2.14;53.44
18790;BME280;9523;42.650;23.386;2023-04-07T00:32:15;94345.28;;;2.07;53.29
18790;BME280;9523;42.650;23.386;2023-04-07T00:34:42;94345.97;;;1.98;53.17
18790;BME280;9523;42.650;23.386;2023-04-07T00:37:09;94340.06;;;2.02;53.30
18790;BME280;9523;42.650;23.386;2023-04-07T00:39:36;94339.75;;;1.99;53.59
18790;BME280;9523;42.650;23.386;2023-04-07T00:42:04;94325.00;;;1.87;53.61
18790;BME280;9523;42.650;23.386;2023-04-07T00:44:31;94339.00;;;2.03;53.53
18790;BME280;9523;42.650;23.386;2023-04-07T00:46:58;94351.47;;;2.01;53.36
18790;BME280;9523;42.650;23.386;2023-04-07T00:49:26;94343.97;;;2.05;53.09
18790;BME280;9523;42.650;23.386;2023-04-07T00:51:54;94343.44;;;2.03;57.22
18790;BME280;9523;42.650;23.386;2023-04-07T00:54:21;94343.56;;;1.91;62.13
18790;BME280;9523;42.650;23.386;2023-04-07T00:56:52;94347.50;;;1.77;69.68
18790;BME280;9523;42.650;23.386;2023-04-07T00:59:20;94346.81;;;1.48;75.72
18790;BME280;9523;42.650;23.386;2023-04-07T01:01:54;94284.31;;;0.88;80.83
18790;BME280;9523;42.650;23.386;2023-04-07T01:04:27;94346.69;;;1.21;83.32
18790;BME280;9523;42.650;23.386;2023-04-07T01:07:03;94345.34;;;1.02;87.30
18790;BME280;9523;42.650;23.386;2023-04-07T01:09:36;94347.31;;;0.95;89.86
18790;BME280;9523;42.650;23.386;2023-04-07T01:12:09;94329.19;;;0.83;85.82
18790;BME280;9523;42.650;23.386;2023-04-07T01:14:46;94327.09;;;0.69;84.02
18790;BME280;9523;42.650;23.386;2023-04-07T01:17:16;94336.41;;;0.81;90.31
18790;BME280;9523;42.650;23.386;2023-04-07T01:19:47;94330.91;;;0.78;90.46
18790;BME280;9523;42.650;23.386;2023-04-07T01:22:27;94325.69;;;0.78;91.45
18790;BME280;9523;42.650;23.386;2023-04-07T01:25:10;94333.97;;;0.75;92.01
18790;BME280;9523;42.650;23.386;2023-04-07T01:27:46;94333.56;;;0.66;92.74
18790;BME280;9523;42.650;23.386;2023-04-07T01:30:17;94331.19;;;0.65;80.19
18790;BME280;9523;42.650;23.386;2023-04-07T01:32:49;94318.28;;;0.70;84.72
18790;BME280;9523;42.650;23.386;2023-04-07T01:35:17;94321.63;;;0.82;78.95
18790;BME280;9523;42.650;23.386;2023-04-07T01:37:45;94321.78;;;0.92;76.36
18790;BME280;9523;42.650;23.386;2023-04-07T01:40:15;94325.56;;;1.01;83.74
18790;BME280;9523;42.650;23.386;2023-04-07T01:42:43;94309.44;;;0.99;88.43
18790;BME280;9523;42.650;23.386;2023-04-07T01:45:11;94323.97;;;1.00;93.29
18790;BME280;9523;42.650;23.386;2023-04-07T01:47:41;94320.38;;;1.01;94.44
18790;BME280;9523;42.650;23.386;2023-04-07T01:50:09;94319.34;;;1.02;94.39
18790;BME280;9523;42.650;23.386;2023-04-07T01:52:37;94310.84;;;0.90;96.94
18790;BME280;9523;42.650;23.386;2023-04-07T01:55:05;94320.22;;;0.91;96.99
18790;BME280;9523;42.650;23.386;2023-04-07T01:57:32;94311.00;;;1.00;98.94
18790;BME280;9523;42.650;23.386;2023-04-07T01:59:59;94309.84;;;0.91;99.11
18790;BME280;9523;42.650;23.386;2023-04-07T02:02:26;94305.09;;;0.88;99.75
18790;BME280;9523;42.650;23.386;2023-04-07T02:04:56;94307.16;;;0.86;99.69
18790;BME280;9523;42.650;23.386;2023-04-07T02:07:30;94302.88;;;0.80;100.00
18790;BME280;9523;42.650;23.386;2023-04-07T02:09:59;94310.13;;;0.78;100.00
18790;BME280;9523;42.650;23.386;2023-04-07T02:12:29;94298.00;;;0.67;100.00
18790;BME280;9523;42.650;23.386;2023-04-07T02:14:59;94304.75;;;0.68;100.00
18790;BME280;9523;42.650;23.386;2023-04-07T02:17:27;94315.09;;;0.79;100.00
18790;BME280;9523;42.650;23.386;2023-04-07T02:19:57;94310.28;;;0.88;99.72
18790;BME280;9523;42.650;23.386;2023-04-07T02:22:25;94311.38;;;0.92;96.48
18790;BME280;9523;42.650;23.386;2023-04-07T02:24:53;94306.13;;;1.04;98.21
18790;BME280;9523;42.650;23.386;2023-04-07T02:27:20;94310.38;;;1.10;98.24
18790;BME280;9523;42.650;23.386;2023-04-07T02:29:46;94297.69;;;1.13;97.40
18790;BME280;9523;42.650;23.386;2023-04-07T02:32:13;94310.00;;;1.18;97.13
18790;BME280;9523;42.650;23.386;2023-04-07T02:34:42;94303.91;;;1.12;98.94
18790;BME280;9523;42.650;23.386;2023-04-07T02:37:10;94307.94;;;1.20;99.11
18790;BME280;9523;42.650;23.386;2023-04-07T02:39:37;94304.94;;;1.28;97.99
18790;BME280;9523;42.650;23.386;2023-04-07T02:42:04;94308.81;;;1.25;97.54
18790;BME280;9523;42.650;23.386;2023-04-07T02:44:30;94312.91;;;1.38;96.97
18790;BME280;9523;42.650;23.386;2023-04-07T02:46:57;94312.50;;;1.46;96.50
18790;BME280;9523;42.650;23.386;2023-04-07T02:49:24;94271.31;;;1.21;95.28
18790;BME280;9523;42.650;23.386;2023-04-07T02:51:51;94311.63;;;1.40;94.47
18790;BME280;9523;42.650;23.386;2023-04-07T02:54:23;94311.53;;;1.52;94.73
18790;BME280;9523;42.650;23.386;2023-04-07T02:56:56;94321.13;;;1.52;93.20
18790;BME280;9523;42.650;23.386;2023-04-07T02:59:23;94322.78;;;1.58;95.13
18790;BME280;9523;42.650;23.386;2023-04-07T03:01:50;94324.19;;;1.65;93.91
18790;BME280;9523;42.650;23.386;2023-04-07T03:04:16;94313.50;;;1.62;92.92
18790;BME280;9523;42.650;23.386;2023-04-07T03:06:43;94329.19;;;1.67;93.10
18790;BME280;9523;42.650;23.386;2023-04-07T03:09:10;94330.41;;;1.64;93.80
18790;BME280;9523;42.650;23.386;2023-04-07T03:11:39;94329.78;;;1.74;92.15
18790;BME280;9523;42.650;23.386;2023-04-07T03:14:06;94326.63;;;1.72;91.53
18790;BME280;9523;42.650;23.386;2023-04-07T03:16:32;94328.28;;;1.78;90.56
18790;BME280;9523;42.650;23.386;2023-04-07T03:18:59;94338.75;;;1.83;91.65
18790;BME280;9523;42.650;23.386;2023-04-07T03:21:26;94330.69;;;1.84;91.39
18790;BME280;9523;42.650;23.386;2023-04-07T03:23:53;94323.38;;;1.81;90.63
18790;BME280;9523;42.650;23.386;2023-04-07T03:26:20;94323.31;;;1.76;90.44
18790;BME280;9523;42.650;23.386;2023-04-07T03:28:48;94326.59;;;1.88;89.01
18790;BME280;9523;42.650;23.386;2023-04-07T03:31:15;94297.22;;;1.71;88.41
18790;BME280;9523;42.650;23.386;2023-04-07T03:33:45;94326.59;;;1.88;78.27
18790;BME280;9523;42.650;23.386;2023-04-07T03:36:12;94316.59;;;1.80;77.55
18790;BME280;9523;42.650;23.386;2023-04-07T03:38:39;94309.56;;;1.59;77.05
18790;BME280;9523;42.650;23.386;2023-04-07T03:41:06;94308.28;;;1.62;79.35
18790;BME280;9523;42.650;23.386;2023-04-07T03:43:33;94310.91;;;1.45;79.79
18790;BME280;9523;42.650;23.386;2023-04-07T03:46:01;94317.22;;;1.32;76.43
18790;BME280;9523;42.650;23.386;2023-04-07T03:48:28;94311.13;;;1.43;72.32
18790;BME280;9523;42.650;23.386;2023-04-07T03:50:55;94310.03;;;1.56;70.74
18790;BME280;9523;42.650;23.386;2023-04-07T03:53:22;94325.16;;;1.59;68.09
18790;BME280;9523;42.650;23.386;2023-04-07T03:55:49;94327.59;;;1.66;63.93
18790;BME280;9523;42.650;23.386;2023-04-07T03:58:16;94323.63;;;1.80;62.75
18790;BME280;9523;42.650;23.386;2023-04-07T04:00:43;94321.69;;;1.92;60.69
18790;BME280;9523;42.650;23.386;2023-04-07T04:03:11;94324.97;;;2.04;59.96
18790;BME280;9523;42.650;23.386;2023-04-07T04:05:38;94327.16;;;2.12;58.73
18790;BME280;9523;42.650;23.386;2023-04-07T04:08:06;94329.94;;;2.27;57.91
18790;BME280;9523;42.650;23.386;2023-04-07T04:10:33;94335.28;;;2.38;57.40
18790;BME280;9523;42.650;23.386;2023-04-07T04:12:59;94344.16;;;2.20;68.12
18790;BME280;9523;42.650;23.386;2023-04-07T04:15:28;94348.00;;;1.96;75.67
18790;BME280;9523;42.650;23.386;2023-04-07T04:17:55;94335.06;;;1.79;81.31
18790;BME280;9523;42.650;23.386;2023-04-07T04:20:23;94341.69;;;1.70;83.34
18790;BME280;9523;42.650;23.386;2023-04-07T04:22:50;94345.22;;;1.64;87.11
18790;BME280;9523;42.650;23.386;2023-04-07T04:25:17;94347.00;;;1.58;88.58
18790;BME280;9523;42.650;23.386;2023-04-07T04:27:43;94342.97;;;1.51;90.12
18790;BME280;9523;42.650;23.386;2023-04-07T04:30:11;94344.47;;;1.47;91.47
18790;BME280;9523;42.650;23.386;2023-04-07T04:32:38;94342.09;;;1.45;92.30
18790;BME280;9523;42.650;23.386;2023-04-07T04:35:05;94357.53;;;1.52;92.28
18790;BME280;9523;42.650;23.386;2023-04-07T04:37:34;94355.81;;;1.57;92.62
18790;BME280;9523;42.650;23.386;2023-04-07T04:40:01;94367.94;;;1.52;93.79
18790;BME280;9523;42.650;23.386;2023-04-07T04:42:28;94355.78;;;1.74;92.34
18790;BME280;9523;42.650;23.386;2023-04-07T04:44:58;94358.78;;;1.66;91.87
18790;BME280;9523;42.650;23.386;2023-04-07T04:47:24;94366.69;;;1.71;91.28
18790;BME280;9523;42.650;23.386;2023-04-07T04:49:51;94357.38;;;1.75;90.29
18790;BME280;9523;42.650;23.386;2023-04-07T04:52:18;94364.78;;;1.83;88.93
18790;BME280;9523;42.650;23.386;2023-04-07T04:54:47;94365.59;;;1.88;88.14
18790;BME280;9523;42.650;23.386;2023-04-07T04:57:14;94353.88;;;1.86;85.91
18790;BME280;9523;42.650;23.386;2023-04-07T04:59:41;94379.31;;;2.01;84.42
18790;BME280;9523;42.650;23.386;2023-04-07T05:02:08;94378.28;;;2.02;83.38
18790;BME280;9523;42.650;23.386;2023-04-07T05:04:34;94372.28;;;2.01;82.25
18790;BME280;9523;42.650;23.386;2023-04-07T05:07:02;94370.63;;;1.95;82.32
18790;BME280;9523;42.650;23.386;2023-04-07T05:09:30;94382.09;;;1.94;83.47
18790;BME280;9523;42.650;23.386;2023-04-07T05:11:58;94381.19;;;2.05;83.32
18790;BME280;9523;42.650;23.386;2023-04-07T05:14:26;94387.19;;;2.06;83.16
18790;BME280;9523;42.650;23.386;2023-04-07T05:16:52;94390.59;;;2.06;82.26
18790;BME280;9523;42.650;23.386;2023-04-07T05:19:19;94391.41;;;2.12;81.52
18790;BME280;9523;42.650;23.386;2023-04-07T05:21:46;94396.63;;;2.12;83.21
18790;BME280;9523;42.650;23.386;2023-04-07T05:24:16;94387.50;;;2.09;85.44
18790;BME280;9523;42.650;23.386;2023-04-07T05:26:45;94395.78;;;2.06;86.48
18790;BME280;9523;42.650;23.386;2023-04-07T05:29:13;94386.63;;;2.04;86.37
18790;BME280;9523;42.650;23.386;2023-04-07T05:31:40;94394.31;;;2.15;85.56
18790;BME280;9523;42.650;23.386;2023-04-07T05:34:07;94391.94;;;2.30;85.13
18790;BME280;9523;42.650;23.386;2023-04-07T05:36:34;94403.06;;;2.48;83.05
18790;BME280;9523;42.650;23.386;2023-04-07T05:39:01;94401.69;;;2.62;83.04
18790;BME280;9523;42.650;23.386;2023-04-07T05:41:28;94397.13;;;2.74;81.32
18790;BME280;9523;42.650;23.386;2023-04-07T05:43:55;94383.97;;;2.86;77.90
18790;BME280;9523;42.650;23.386;2023-04-07T05:46:23;94393.31;;;3.08;76.23
18790;BME280;9523;42.650;23.386;2023-04-07T05:48:50;94399.91;;;3.16;74.91
18790;BME280;9523;42.650;23.386;2023-04-07T05:51:17;94387.72;;;3.26;72.95
18790;BME280;9523;42.650;23.386;2023-04-07T05:53:44;94399.88;;;3.43;74.35
18790;BME280;9523;42.650;23.386;2023-04-07T05:56:11;94396.25;;;3.44;72.47
18790;BME280;9523;42.650;23.386;2023-04-07T05:58:38;94394.25;;;3.56;72.82
18790;BME280;9523;42.650;23.386;2023-04-07T06:01:05;94392.78;;;3.65;69.47
18790;BME280;9523;42.650;23.386;2023-04-07T06:03:33;94396.59;;;3.94;66.76
18790;BME280;9523;42.650;23.386;2023-04-07T06:06:00;94396.59;;;3.94;66.13
18790;BME280;9523;42.650;23.386;2023-04-07T06:08:27;94400.28;;;3.98;66.45
18790;BME280;9523;42.650;23.386;2023-04-07T06:10:53;94392.16;;;3.90;67.75
18790;BME280;9523;42.650;23.386;2023-04-07T06:13:20;94395.53;;;3.90;67.65
18790;BME280;9523;42.650;23.386;2023-04-07T06:15:47;94396.56;;;3.84;67.97
18790;BME280;9523;42.650;23.386;2023-04-07T06:18:14;94395.94;;;3.72;67.67
18790;BME280;9523;42.650;23.386;2023-04-07T06:20:42;94395.44;;;3.70;68.22
18790;BME280;9523;42.650;23.386;2023-04-07T06:23:09;94387.59;;;3.75;67.56
18790;BME280;9523;42.650;23.386;2023-04-07T06:25:36;94391.06;;;3.81;67.63
18790;BME280;9523;42.650;23.386;2023-04-07T06:28:04;94395.06;;;3.93;67.97
18790;BME280;9523;42.650;23.386;2023-04-07T06:30:31;94393.25;;;3.99;65.59
18790;BME280;9523;42.650;23.386;2023-04-07T06:32:58;94398.78;;;4.07;65.61
18790;BME280;9523;42.650;23.386;2023-04-07T06:35:25;94388.91;;;4.14;66.12
18790;BME280;9523;42.650;23.386;2023-04-07T06:37:53;94382.66;;;4.15;64.75
18790;BME280;9523;42.650;23.386;2023-04-07T06:40:20;94393.88;;;4.16;65.04
18790;BME280;9523;42.650;23.386;2023-04-07T06:42:47;94394.41;;;4.13;64.79
18790;BME280;9523;42.650;23.386;2023-04-07T06:45:14;94390.25;;;4.22;64.45
18790;BME280;9523;42.650;23.386;2023-04-07T06:47:41;94391.50;;;4.14;65.41
18790;BME280;9523;42.650;23.386;2023-04-07T06:50:08;94398.59;;;4.14;65.39
18790;BME280;9523;42.650;23.386;2023-04-07T06:52:35;94396.81;;;4.24;65.63
18790;BME280;9523;42.650;23.386;2023-04-07T06:55:03;94394.75;;;4.32;65.44
18790;BME280;9523;42.650;23.386;2023-04-07T06:57:32;94385.16;;;4.47;65.04
18790;BME280;9523;42.650;23.386;2023-04-07T06:59:58;94386.50;;;4.55;64.83
18790;BME280;9523;42.650;23.386;2023-04-07T07:02:25;94387.59;;;4.64;61.88
18790;BME280;9523;42.650;23.386;2023-04-07T07:04:52;94382.88;;;4.66;62.33
18790;BME280;9523;42.650;23.386;2023-04-07T07:07:19;94391.28;;;4.78;61.84
18790;BME280;9523;42.650;23.386;2023-04-07T07:09:46;94399.59;;;4.70;60.01
18790;BME280;9523;42.650;23.386;2023-04-07T07:12:14;94393.91;;;4.83;60.47
18790;BME280;9523;42.650;23.386;2023-04-07T07:14:42;94409.13;;;4.96;59.95
18790;BME280;9523;42.650;23.386;2023-04-07T07:17:09;94408.13;;;5.12;59.24
18790;BME280;9523;42.650;23.386;2023-04-07T07:19:36;94405.50;;;5.22;58.61
18790;BME280;9523;42.650;23.386;2023-04-07T07:22:03;94401.34;;;5.27;57.79
18790;BME280;9523;42.650;23.386;2023-04-07T07:24:30;94398.72;;;5.32;56.18
18790;BME280;9523;42.650;23.386;2023-04-07T07:26:58;94412.38;;;5.49;56.22
18790;BME280;9523;42.650;23.386;2023-04-07T07:29:27;94406.34;;;5.63;58.73
18790;BME280;9523;42.650;23.386;2023-04-07T07:31:54;94404.53;;;5.69;61.45
18790;BME280;9523;42.650;23.386;2023-04-07T07:34:21;94416.31;;;6.02;58.21
18790;BME280;9523;42.650;23.386;2023-04-07T07:36:48;94417.59;;;6.14;53.74
18790;BME280;9523;42.650;23.386;2023-04-07T07:39:15;94392.19;;;6.10;55.94
18790;BME280;9523;42.650;23.386;2023-04-07T07:41:42;94420.88;;;6.66;56.13
18790;BME280;9523;42.650;23.386;2023-04-07T07:44:09;94431.22;;;6.22;46.25
18790;BME280;9523;42.650;23.386;2023-04-07T07:46:37;94438.97;;;6.67;46.20
18790;BME280;9523;42.650;23.386;2023-04-07T07:49:04;94425.63;;;6.69;44.03
18790;BME280;9523;42.650;23.386;2023-04-07T07:51:31;94425.66;;;7.18;46.78
18790;BME280;9523;42.650;23.386;2023-04-07T07:53:58;94436.38;;;7.26;43.15
18790;BME280;9523;42.650;23.386;2023-04-07T07:56:25;94433.13;;;6.95;42.61
18790;BME280;9523;42.650;23.386;2023-04-07T07:58:52;94434.31;;;7.18;42.17
18790;BME280;9523;42.650;23.386;2023-04-07T08:01:19;94435.50;;;6.82;42.52
18790;BME280;9523;42.650;23.386;2023-04-07T08:03:47;94430.06;;;6.68;43.14
18790;BME280;9523;42.650;23.386;2023-04-07T08:06:14;94436.22;;;7.07;42.45
18790;BME280;9523;42.650;23.386;2023-04-07T08:08:42;94431.34;;;7.30;42.04
18790;BME280;9523;42.650;23.386;2023-04-07T08:11:09;94435.00;;;7.39;40.73
18790;BME280;9523;42.650;23.386;2023-04-07T08:13:36;94354.13;;;6.97;40.74
18790;BME280;9523;42.650;23.386;2023-04-07T08:16:03;94425.22;;;7.44;40.84
18790;BME280;9523;42.650;23.386;2023-04-07T08:18:30;94431.50;;;7.87;40.66
18790;BME280;9523;42.650;23.386;2023-04-07T08:20:58;94420.81;;;7.79;40.25
18790;BME280;9523;42.650;23.386;2023-04-07T08:23:25;94401.53;;;7.60;40.06
18790;BME280;9523;42.650;23.386;2023-04-07T08:25:51;94417.84;;;8.19;40.03
18790;BME280;9523;42.650;23.386;2023-04-07T08:28:18;94418.38;;;8.16;39.45
18790;BME280;9523;42.650;23.386;2023-04-07T08:30:45;94424.91;;;8.24;39.23
18790;BME280;9523;42.650;23.386;2023-04-07T08:33:12;94432.03;;;8.18;39.71
18790;BME280;9523;42.650;23.386;2023-04-07T08:35:39;94425.88;;;8.04;39.29
18790;BME280;9523;42.650;23.386;2023-04-07T08:38:07;94420.00;;;8.12;39.32
18790;BME280;9523;42.650;23.386;2023-04-07T08:40:34;94420.41;;;8.29;39.39
18790;BME280;9523;42.650;23.386;2023-04-07T08:43:03;94424.72;;;8.44;38.67
18790;BME280;9523;42.650;23.386;2023-04-07T08:45:37;94416.06;;;8.67;38.10
18790;BME280;9523;42.650;23.386;2023-04-07T08:48:10;94434.94;;;8.74;38.52
18790;BME280;9523;42.650;23.386;2023-04-07T08:50:43;94442.97;;;9.07;37.44
18790;BME280;9523;42.650;23.386;2023-04-07T08:53:12;94434.13;;;8.50;38.03
18790;BME280;9523;42.650;23.386;2023-04-07T08:55:40;94419.41;;;8.49;38.10
18790;BME280;9523;42.650;23.386;2023-04-07T08:58:08;94388.88;;;8.53;38.05
18790;BME280;9523;42.650;23.386;2023-04-07T09:00:37;94434.41;;;8.20;37.96
18790;BME280;9523;42.650;23.386;2023-04-07T09:03:06;94426.59;;;8.91;37.83
18790;BME280;9523;42.650;23.386;2023-04-07T09:05:34;94421.50;;;9.37;37.09
18790;BME280;9523;42.650;23.386;2023-04-07T09:08:01;94419.25;;;9.49;36.53
18790;BME280;9523;42.650;23.386;2023-04-07T09:10:29;94416.09;;;9.84;36.02
18790;BME280;9523;42.650;23.386;2023-04-07T09:12:57;94414.16;;;9.90;35.53
18790;BME280;9523;42.650;23.386;2023-04-07T09:15:24;94431.75;;;9.20;35.94
18790;BME280;9523;42.650;23.386;2023-04-07T09:17:52;94428.59;;;8.99;36.83
18790;BME280;9523;42.650;23.386;2023-04-07T09:20:18;94417.19;;;9.46;36.16
18790;BME280;9523;42.650;23.386;2023-04-07T09:22:45;94423.75;;;10.18;35.39
18790;BME280;9523;42.650;23.386;2023-04-07T09:25:14;94428.03;;;10.88;34.58
18790;BME280;9523;42.650;23.386;2023-04-07T09:27:53;94383.09;;;10.65;33.64
18790;BME280;9523;42.650;23.386;2023-04-07T09:30:20;94427.84;;;10.98;33.88
18790;BME280;9523;42.650;23.386;2023-04-07T09:32:47;94416.09;;;10.49;34.02
18790;BME280;9523;42.650;23.386;2023-04-07T09:35:14;94416.69;;;10.46;34.54
18790;BME280;9523;42.650;23.386;2023-04-07T09:37:41;94418.59;;;10.27;34.59
18790;BME280;9523;42.650;23.386;2023-04-07T09:40:08;94413.53;;;10.30;35.00
18790;BME280;9523;42.650;23.386;2023-04-07T09:42:45;94424.31;;;10.61;34.35
18790;BME280;9523;42.650;23.386;2023-04-07T09:45:23;94416.88;;;10.50;34.90
18790;BME280;9523;42.650;23.386;2023-04-07T09:47:51;94432.84;;;10.26;35.21
18790;BME280;9523;42.650;23.386;2023-04-07T09:50:30;94420.28;;;9.85;35.85
18790;BME280;9523;42.650;23.386;2023-04-07T09:52:57;94430.00;;;9.53;35.94
18790;BME280;9523;42.650;23.386;2023-04-07T09:55:24;94437.66;;;8.64;37.83
18790;BME280;9523;42.650;23.386;2023-04-07T09:57:52;94427.00;;;8.56;38.76
18790;BME280;9523;42.650;23.386;2023-04-07T10:00:20;94414.78;;;8.65;38.43
18790;BME280;9523;42.650;23.386;2023-04-07T10:02:48;94435.28;;;8.68;39.06
18790;BME280;9523;42.650;23.386;2023-04-07T10:05:17;94438.66;;;8.92;38.80
18790;BME280;9523;42.650;23.386;2023-04-07T10:07:46;94426.66;;;9.47;38.15
18790;BME280;9523;42.650;23.386;2023-04-07T10:10:13;94432.13;;;9.69;37.42
18790;BME280;9523;42.650;23.386;2023-04-07T10:12:41;94432.56;;;10.09;36.85
18790;BME280;9523;42.650;23.386;2023-04-07T10:15:11;94389.69;;;9.71;36.61
18790;BME280;9523;42.650;23.386;2023-04-07T10:17:41;94431.09;;;9.84;36.81
18790;BME280;9523;42.650;23.386;2023-04-07T10:20:11;94431.47;;;10.15;36.90
18790;BME280;9523;42.650;23.386;2023-04-07T10:22:40;94432.97;;;10.48;36.23
18790;BME280;9523;42.650;23.386;2023-04-07T10:25:10;94417.81;;;10.40;36.22
18790;BME280;9523;42.650;23.386;2023-04-07T10:27:41;94427.44;;;10.50;35.53
18790;BME280;9523;42.650;23.386;2023-04-07T10:30:17;94420.69;;;9.93;36.75
18790;BME280;9523;42.650;23.386;2023-04-07T10:32:47;94434.31;;;9.43;36.54
18790;BME280;9523;42.650;23.386;2023-04-07T10:35:14;94433.03;;;9.04;37.94
18790;BME280;9523;42.650;23.386;2023-04-07T10:38:11;94426.56;;;9.33;37.33
18790;BME280;9523;42.650;23.386;2023-04-07T10:40:40;94440.84;;;9.09;38.07
18790;BME280;9523;42.650;23.386;2023-04-07T10:43:10;94447.16;;;9.08;38.36
18790;BME280;9523;42.650;23.386;2023-04-07T10:45:57;94434.56;;;9.05;38.01
18790;BME280;9523;42.650;23.386;2023-04-07T10:48:25;94446.66;;;9.06;37.83
18790;BME280;9523;42.650;23.386;2023-04-07T10:51:15;94432.13;;;8.89;38.46
18790;BME280;9523;42.650;23.386;2023-04-07T10:57:14;94453.25;;;9.27;40.34
18790;BME280;9523;42.650;23.386;2023-04-07T11:00:14;94441.59;;;9.33;40.98
18790;BME280;9523;42.650;23.386;2023-04-07T11:02:43;94448.00;;;9.27;41.71
18790;BME280;9523;42.650;23.386;2023-04-07T11:05:19;94453.25;;;9.27;41.67
18790;BME280;9523;42.650;23.386;2023-04-07T11:07:49;94451.94;;;9.06;41.16
18790;BME280;9523;42.650;23.386;2023-04-07T11:10:16;94448.56;;;8.76;41.39
18790;BME280;9523;42.650;23.386;2023-04-07T11:12:58;94420.19;;;8.49;41.59
18790;BME280;9523;42.650;23.386;2023-04-07T11:15:25;94445.84;;;8.86;40.96
18790;BME280;9523;42.650;23.386;2023-04-07T11:18:12;94454.31;;;8.83;40.84
18790;BME280;9523;42.650;23.386;2023-04-07T11:20:56;94459.63;;;8.78;41.01
18790;BME280;9523;42.650;23.386;2023-04-07T11:23:24;94447.81;;;9.00;40.85
18790;BME280;9523;42.650;23.386;2023-04-07T11:25:58;94445.44;;;8.98;40.59
18790;BME280;9523;42.650;23.386;2023-04-07T11:28:25;94454.06;;;9.04;40.95
18790;BME280;9523;42.650;23.386;2023-04-07T11:30:53;94449.03;;;8.83;41.07
18790;BME280;9523;42.650;23.386;2023-04-07T11:33:24;94451.06;;;8.91;41.33
18790;BME280;9523;42.650;23.386;2023-04-07T11:35:53;94460.78;;;9.15;41.41
18790;BME280;9523;42.650;23.386;2023-04-07T11:38:23;94438.25;;;9.27;40.82
18790;BME280;9523;42.650;23.386;2023-04-07T11:40:50;94450.00;;;9.35;41.08
18790;BME280;9523;42.650;23.386;2023-04-07T11:43:19;94451.84;;;9.53;40.90
18790;BME280;9523;42.650;23.386;2023-04-07T11:46:02;94459.16;;;9.56;40.47
18790;BME280;9523;42.650;23.386;2023-04-07T11:48:32;94449.00;;;9.31;40.74
18790;BME280;9523;42.650;23.386;2023-04-07T11:50:59;94445.66;;;9.81;40.38
18790;BME280;9523;42.650;23.386;2023-04-07T11:53:28;94444.88;;;10.13;40.21
18790;BME280;9523;42.650;23.386;2023-04-07T11:56:02;94438.41;;;10.06;39.67
18790;BME280;9523;42.650;23.386;2023-04-07T11:58:30;94450.94;;;10.14;39.69
18790;BME280;9523;42.650;23.386;2023-04-07T12:01:01;94458.75;;;10.38;39.82
18790;BME280;9523;42.650;23.386;2023-04-07T12:03:33;94455.53;;;10.27;39.83
18790;BME280;9523;42.650;23.386;2023-04-07T12:06:01;94442.19;;;10.00;39.75
18790;BME280;9523;42.650;23.386;2023-04-07T12:08:39;94455.78;;;10.25;40.19
18790;BME280;9523;42.650;23.386;2023-04-07T12:11:06;94444.03;;;10.64;39.40
18790;BME280;9523;42.650;23.386;2023-04-07T12:13:34;94449.13;;;11.28;39.59
18790;BME280;9523;42.650;23.386;2023-04-07T12:16:01;94452.84;;;11.41;38.64
18790;BME280;9523;42.650;23.386;2023-04-07T12:18:28;94454.50;;;11.23;38.84
18790;BME280;9523;42.650;23.386;2023-04-07T12:20:56;94448.66;;;11.26;38.68
18790;BME280;9523;42.650;23.386;2023-04-07T12:23:26;94445.28;;;11.48;38.72
18790;BME280;9523;42.650;23.386;2023-04-07T12:25:53;94452.28;;;11.66;38.21
18790;BME280;9523;42.650;23.386;2023-04-07T12:28:20;94395.44;;;11.69;37.94
18790;BME280;9523;42.650;23.386;2023-04-07T12:30:46;94446.94;;;13.00;35.89
18790;BME280;9523;42.650;23.386;2023-04-07T12:33:14;94442.97;;;12.80;36.05
18790;BME280;9523;42.650;23.386;2023-04-07T12:35:41;94447.09;;;12.33;36.65
18790;BME280;9523;42.650;23.386;2023-04-07T12:38:09;94445.31;;;12.51;37.00
18790;BME280;9523;42.650;23.386;2023-04-07T12:40:36;94445.03;;;12.08;37.07
18790;BME280;9523;42.650;23.386;2023-04-07T12:43:03;94445.28;;;11.48;37.51
18790;BME280;9523;42.650;23.386;2023-04-07T12:45:30;94431.44;;;11.29;38.00
18790;BME280;9523;42.650;23.386;2023-04-07T12:47:57;94443.84;;;11.42;38.26
18790;BME280;9523;42.650;23.386;2023-04-07T12:50:24;94446.53;;;11.51;38.11
18790;BME280;9523;42.650;23.386;2023-04-07T12:52:51;94439.56;;;11.68;38.22
18790;BME280;9523;42.650;23.386;2023-04-07T12:55:20;94443.53;;;11.93;38.25
18790;BME280;9523;42.650;23.386;2023-04-07T12:57:47;94453.25;;;11.70;38.44
18790;BME280;9523;42.650;23.386;2023-04-07T13:00:14;94456.13;;;11.60;38.05
18790;BME280;9523;42.650;23.386;2023-04-07T13:02:41;94453.63;;;11.42;38.74
18790;BME280;9523;42.650;23.386;2023-04-07T13:05:08;94451.88;;;11.37;39.14
18790;BME280;9523;42.650;23.386;2023-04-07T13:07:35;94451.31;;;11.13;38.93
18790;BME280;9523;42.650;23.386;2023-04-07T13:10:03;94459.13;;;10.91;39.26
18790;BME280;9523;42.650;23.386;2023-04-07T13:12:34;94452.81;;;10.59;39.82
18790;BME280;9523;42.650;23.386;2023-04-07T13:15:01;94454.22;;;10.24;40.04
18790;BME280;9523;42.650;23.386;2023-04-07T13:17:28;94462.66;;;10.26;40.66
18790;BME280;9523;42.650;23.386;2023-04-07T13:19:55;94463.59;;;9.98;40.66